Airfield :
LOGIN :

Register | Disclaimer

   EN    FR    IT 

 










Legend :    VFR   Marginal VFR   IFR   Intensive IFR   Very Intensive IFR
Visi :
Ceiling :
>= 8 km
>= 3000ft
5 to 8 km
1000 to 3000 ft
1500m to 5 km
500 to 1000 ft
800 to 1500m
200 to 500 ft
< 800m
< 200 ft
Symbols :   Thunderstorms  Fog  Heavy snow  Heavy precipitations  Wind > 20 kt
SIGMETs :     Misc.  Thunderstorms  Icing  Turbulence  Mountain Waves  Volcanic Ashes






- Airport Elevation : 233 ft
- IATA code : REU


LERS - Reus Tarragona

CURRENT METAR :
  • 240600Z 25007KT 210V290 CAVOK 08/00 Q1016

EXPIRED METARs :
  • 240530Z 25011KT CAVOK 07/00 Q1016
  • 240500Z 29007KT 260V330 CAVOK 07/M00 Q1016
  • 240430Z AUTO 27009KT CAVOK 08/00 Q1016
  • 240400Z AUTO 26005KT 230V300 CAVOK 08/M00 Q1016
  • 240330Z AUTO 27010KT CAVOK 07/M00 Q1016
  • 240300Z AUTO 28008KT CAVOK 08/M01 Q1016
  • 240230Z AUTO 27011KT CAVOK 08/M01 Q1016
  • 240200Z AUTO 27009KT 250V310 CAVOK 08/M03 Q1016
  • 240130Z AUTO 25006KT CAVOK 07/M04 Q1016
  • 240100Z AUTO 00000KT CAVOK 04/M02 Q1016

TAF TAF LERS
Valid from the 24 at 03:00 until the 25 at 03:00 UTC


240200Z 2403/2503 VRB05KT 9999 FEW030 TX23/2413Z TN05/2406Z
TEMPO 2403/2417 28013KT
TEMPO 2416/2421 21012KT



MET'MAP, your aeronautical weather chart ! - Copyright ORBIFLY December 2007 - Disclaimer

ORBIFLY MET'MAP TEAM :

Programming & Development : Alexandra Zaïnal
Original concept : Baudouin d'Aumeries
Technical & hardware support : Manuel Goepfert
Assistance : Marc-Olivier Méhu




SOURCES & CREDITS :

   NOAA